EJU71TK LFLL-LPPT
Flight info
| Callsign | EJU71TK |
|---|---|
| Flight time | 2h 12m |
| Altitude | 37000 |
| Route | REPSI DCT LERGA DCT MINSO DCT NARAK DCT AGN DCT PIPOR L866 PPN DCT MIRPO DCT DGO DCT NEA DCT ARDID DCT INBOM |
| Aircraft | A320/M-SDE3FGHIRWY/LB1 |
Departure
| Time | 2026-04-29 21:46 |
|---|---|
| Airport | Lyon Saint-Exupéry Airport (LFLL) |
Arrival
| Time | 2026-04-29 23:58 |
|---|---|
| Airport | Lisbon Humberto Delgado Airport (LPPT) |
| Time | Latitude | Longitude | Altitude | Speed | Heading |
|---|---|---|---|---|---|
| 2026-04-29 21:06 | 45.72184 | 5.08212 | 797 ft | 0 kts | 290° |
| 2026-04-29 21:32 | 45.72181 | 5.08224 | 797 ft | 4 kts | 292° |
| 2026-04-29 21:32 | 45.72173 | 5.08261 | 797 ft | 4 kts | 280° |
| 2026-04-29 21:32 | 45.72173 | 5.08297 | 798 ft | 4 kts | 243° |
| 2026-04-29 21:32 | 45.72189 | 5.08320 | 798 ft | 2 kts | 188° |
| 2026-04-29 21:33 | 45.72191 | 5.08320 | 798 ft | 0 kts | 187° |
| 2026-04-29 21:37 | 45.72160 | 5.08313 | 798 ft | 8 kts | 192° |
| 2026-04-29 21:37 | 45.72092 | 5.08283 | 797 ft | 12 kts | 198° |
| 2026-04-29 21:38 | 45.72008 | 5.08259 | 797 ft | 13 kts | 168° |
| 2026-04-29 21:38 | 45.71963 | 5.08344 | 799 ft | 11 kts | 114° |
| 2026-04-29 21:38 | 45.71973 | 5.08437 | 801 ft | 9 kts | 45° |
| 2026-04-29 21:38 | 45.72034 | 5.08451 | 802 ft | 9 kts | 356° |
| 2026-04-29 21:39 | 45.72089 | 5.08445 | 803 ft | 7 kts | 354° |
| 2026-04-29 21:39 | 45.72138 | 5.08439 | 802 ft | 7 kts | 355° |
| 2026-04-29 21:39 | 45.72193 | 5.08432 | 801 ft | 9 kts | 355° |
| 2026-04-29 21:39 | 45.72259 | 5.08425 | 800 ft | 10 kts | 355° |
| 2026-04-29 21:40 | 45.72336 | 5.08417 | 799 ft | 12 kts | 355° |
| 2026-04-29 21:40 | 45.72431 | 5.08404 | 797 ft | 14 kts | 355° |
| 2026-04-29 21:40 | 45.72526 | 5.08392 | 796 ft | 13 kts | 354° |
| 2026-04-29 21:40 | 45.72615 | 5.08381 | 793 ft | 14 kts | 355° |
| 2026-04-29 21:41 | 45.72712 | 5.08370 | 791 ft | 14 kts | 354° |
| 2026-04-29 21:41 | 45.72801 | 5.08358 | 791 ft | 12 kts | 354° |
| 2026-04-29 21:41 | 45.72884 | 5.08349 | 790 ft | 13 kts | 355° |
| 2026-04-29 21:41 | 45.73001 | 5.08335 | 788 ft | 19 kts | 356° |
| 2026-04-29 21:42 | 45.73132 | 5.08320 | 786 ft | 19 kts | 355° |
| 2026-04-29 21:42 | 45.73257 | 5.08305 | 784 ft | 17 kts | 355° |
| 2026-04-29 21:42 | 45.73377 | 5.08291 | 781 ft | 17 kts | 354° |
| 2026-04-29 21:42 | 45.73494 | 5.08277 | 780 ft | 16 kts | 352° |
| 2026-04-29 21:43 | 45.73598 | 5.08261 | 779 ft | 14 kts | 355° |
| 2026-04-29 21:43 | 45.73693 | 5.08281 | 777 ft | 14 kts | 32° |
| 2026-04-29 21:43 | 45.73726 | 5.08397 | 777 ft | 13 kts | 95° |
| 2026-04-29 21:43 | 45.73704 | 5.08527 | 777 ft | 15 kts | 104° |
| 2026-04-29 21:44 | 45.73697 | 5.08567 | 776 ft | 0 kts | 105° |
| 2026-04-29 21:44 | 45.73695 | 5.08576 | 776 ft | 6 kts | 105° |
| 2026-04-29 21:44 | 45.73679 | 5.08661 | 777 ft | 12 kts | 106° |
| 2026-04-29 21:45 | 45.73619 | 5.08724 | 779 ft | 0 kts | 174° |
| 2026-04-29 21:45 | 45.73568 | 5.08730 | 781 ft | 28 kts | 174° |
| 2026-04-29 21:45 | 45.73131 | 5.08784 | 790 ft | 95 kts | 175° |
| 2026-04-29 21:46 | 45.72287 | 5.08890 | 801 ft | 145 kts | 175° |
| 2026-04-29 21:46 | 45.71163 | 5.09023 | 1024 ft | 169 kts | 175° |
| 2026-04-29 21:46 | 45.69998 | 5.09128 | 1726 ft | 168 kts | 175° |
| 2026-04-29 21:46 | 45.68828 | 5.09267 | 2358 ft | 170 kts | 172° |
| 2026-04-29 21:47 | 45.67657 | 5.09472 | 2974 ft | 170 kts | 170° |
| 2026-04-29 21:47 | 45.66448 | 5.09528 | 3404 ft | 186 kts | 197° |
| 2026-04-29 21:47 | 45.65413 | 5.08316 | 3658 ft | 209 kts | 243° |
| 2026-04-29 21:47 | 45.65004 | 5.06223 | 3935 ft | 229 kts | 258° |
| 2026-04-29 21:48 | 45.64691 | 5.03859 | 4252 ft | 254 kts | 258° |
| 2026-04-29 21:48 | 45.64349 | 5.01289 | 4850 ft | 268 kts | 258° |
| 2026-04-29 21:48 | 45.63999 | 4.98653 | 5674 ft | 272 kts | 258° |
| 2026-04-29 21:48 | 45.63626 | 4.95982 | 6538 ft | 275 kts | 255° |
| 2026-04-29 21:49 | 45.63022 | 4.93377 | 7344 ft | 278 kts | 247° |
| 2026-04-29 21:49 | 45.62248 | 4.90823 | 8164 ft | 281 kts | 244° |
| 2026-04-29 21:49 | 45.61409 | 4.88277 | 8983 ft | 285 kts | 244° |
| 2026-04-29 21:49 | 45.60554 | 4.85708 | 9793 ft | 289 kts | 244° |
| 2026-04-29 21:50 | 45.59697 | 4.83088 | 10471 ft | 297 kts | 244° |
| 2026-04-29 21:50 | 45.58801 | 4.80293 | 10706 ft | 320 kts | 245° |
| 2026-04-29 21:50 | 45.57868 | 4.77324 | 11138 ft | 334 kts | 245° |
| 2026-04-29 21:50 | 45.56919 | 4.74261 | 11835 ft | 339 kts | 246° |
| 2026-04-29 21:51 | 45.55964 | 4.71166 | 12550 ft | 343 kts | 246° |
| 2026-04-29 21:51 | 45.55007 | 4.68053 | 13265 ft | 346 kts | 246° |
| 2026-04-29 21:51 | 45.53049 | 4.61694 | 14586 ft | 353 kts | 246° |
| 2026-04-29 21:52 | 45.52053 | 4.58476 | 15193 ft | 357 kts | 246° |
| 2026-04-29 21:52 | 45.51056 | 4.55268 | 15797 ft | 360 kts | 246° |
| 2026-04-29 21:52 | 45.50023 | 4.51954 | 16418 ft | 364 kts | 246° |
| 2026-04-29 21:52 | 45.48992 | 4.48642 | 17023 ft | 367 kts | 246° |
| 2026-04-29 21:53 | 45.47965 | 4.45342 | 17609 ft | 371 kts | 246° |
| 2026-04-29 21:53 | 45.46914 | 4.41970 | 18215 ft | 374 kts | 246° |
| 2026-04-29 21:53 | 45.45853 | 4.38569 | 18738 ft | 377 kts | 246° |
| 2026-04-29 21:53 | 45.44770 | 4.35106 | 19266 ft | 380 kts | 246° |
| 2026-04-29 21:54 | 45.43707 | 4.31710 | 19814 ft | 382 kts | 246° |
| 2026-04-29 21:54 | 45.42618 | 4.28248 | 20345 ft | 383 kts | 246° |
| 2026-04-29 21:54 | 45.41524 | 4.24782 | 20874 ft | 386 kts | 246° |
| 2026-04-29 21:54 | 45.40449 | 4.21377 | 21372 ft | 388 kts | 246° |
| 2026-04-29 21:55 | 45.39346 | 4.17873 | 21867 ft | 390 kts | 246° |
| 2026-04-29 21:55 | 45.38235 | 4.14338 | 22362 ft | 392 kts | 246° |
| 2026-04-29 21:55 | 45.37115 | 4.10780 | 22847 ft | 395 kts | 246° |
| 2026-04-29 21:55 | 45.35988 | 4.07214 | 23328 ft | 397 kts | 246° |
| 2026-04-29 21:56 | 45.34850 | 4.03616 | 23771 ft | 400 kts | 246° |
| 2026-04-29 21:56 | 45.34091 | 4.01225 | 24024 ft | 402 kts | 246° |
| 2026-04-29 21:56 | 45.32545 | 3.96373 | 24547 ft | 404 kts | 246° |
| 2026-04-29 21:56 | 45.31776 | 3.93962 | 24807 ft | 406 kts | 246° |
| 2026-04-29 21:57 | 45.30609 | 3.90299 | 25201 ft | 407 kts | 246° |
| 2026-04-29 21:57 | 45.29438 | 3.86632 | 25573 ft | 409 kts | 246° |
| 2026-04-29 21:57 | 45.28254 | 3.82943 | 25959 ft | 411 kts | 246° |
| 2026-04-29 21:57 | 45.27069 | 3.79240 | 26324 ft | 413 kts | 246° |
| 2026-04-29 21:58 | 45.25847 | 3.75534 | 26684 ft | 415 kts | 242° |
| 2026-04-29 21:58 | 45.24294 | 3.72070 | 27028 ft | 418 kts | 236° |
| 2026-04-29 21:58 | 45.22625 | 3.68675 | 27378 ft | 420 kts | 236° |
| 2026-04-29 21:58 | 45.20949 | 3.65282 | 27734 ft | 422 kts | 235° |
| 2026-04-29 21:59 | 45.19258 | 3.61864 | 28075 ft | 424 kts | 235° |
| 2026-04-29 21:59 | 45.17563 | 3.58440 | 28423 ft | 426 kts | 235° |
| 2026-04-29 21:59 | 45.15853 | 3.54982 | 28768 ft | 428 kts | 235° |
| 2026-04-29 21:59 | 45.14143 | 3.51518 | 29095 ft | 431 kts | 235° |
| 2026-04-29 22:00 | 45.12420 | 3.48030 | 29420 ft | 433 kts | 235° |
| 2026-04-29 22:00 | 45.10689 | 3.44536 | 29741 ft | 435 kts | 235° |
| 2026-04-29 22:00 | 45.08950 | 3.41033 | 30046 ft | 437 kts | 235° |
| 2026-04-29 22:00 | 45.07192 | 3.37502 | 30320 ft | 439 kts | 235° |
| 2026-04-29 22:01 | 45.05435 | 3.33978 | 30589 ft | 440 kts | 235° |
| 2026-04-29 22:01 | 45.03664 | 3.30431 | 30871 ft | 441 kts | 235° |
| 2026-04-29 22:01 | 45.01899 | 3.26894 | 31166 ft | 441 kts | 234° |
| 2026-04-29 22:01 | 45.00129 | 3.23348 | 31554 ft | 439 kts | 234° |
| 2026-04-29 22:02 | 44.98377 | 3.19843 | 31958 ft | 437 kts | 234° |
| 2026-04-29 22:02 | 44.96621 | 3.16337 | 32351 ft | 435 kts | 234° |
| 2026-04-29 22:02 | 44.94881 | 3.12868 | 32730 ft | 433 kts | 234° |
| 2026-04-29 22:02 | 44.93139 | 3.09398 | 33112 ft | 432 kts | 234° |
| 2026-04-29 22:03 | 44.91407 | 3.05952 | 33482 ft | 430 kts | 234° |
| 2026-04-29 22:03 | 44.89676 | 3.02519 | 33863 ft | 429 kts | 234° |
| 2026-04-29 22:03 | 44.87951 | 2.99102 | 34205 ft | 428 kts | 234° |
| 2026-04-29 22:03 | 44.86227 | 2.95686 | 34492 ft | 427 kts | 234° |
| 2026-04-29 22:04 | 44.84508 | 2.92275 | 34782 ft | 426 kts | 234° |
| 2026-04-29 22:04 | 44.82839 | 2.88824 | 35031 ft | 426 kts | 236° |
| 2026-04-29 22:04 | 44.81225 | 2.85325 | 35289 ft | 426 kts | 237° |
| 2026-04-29 22:04 | 44.79640 | 2.81811 | 35531 ft | 425 kts | 237° |
| 2026-04-29 22:05 | 44.78060 | 2.78294 | 35786 ft | 425 kts | 237° |
| 2026-04-29 22:05 | 44.76496 | 2.74832 | 36035 ft | 424 kts | 237° |
| 2026-04-29 22:05 | 44.73309 | 2.67874 | 36536 ft | 422 kts | 237° |
| 2026-04-29 22:06 | 44.71690 | 2.64378 | 36750 ft | 422 kts | 237° |
| 2026-04-29 22:06 | 44.70104 | 2.60967 | 36972 ft | 421 kts | 237° |
| 2026-04-29 22:06 | 44.68500 | 2.57524 | 37045 ft | 420 kts | 237° |
| 2026-04-29 22:07 | 44.65308 | 2.50685 | 37053 ft | 418 kts | 236° |
| 2026-04-29 22:07 | 44.62119 | 2.43857 | 37049 ft | 418 kts | 236° |
| 2026-04-29 22:08 | 44.58939 | 2.37049 | 37051 ft | 418 kts | 236° |
| 2026-04-29 22:08 | 44.55745 | 2.30242 | 37049 ft | 417 kts | 236° |
| 2026-04-29 22:09 | 44.52550 | 2.23451 | 37048 ft | 417 kts | 236° |
| 2026-04-29 22:09 | 44.49353 | 2.16658 | 37049 ft | 417 kts | 236° |
| 2026-04-29 22:10 | 44.46156 | 2.09866 | 37046 ft | 417 kts | 236° |
| 2026-04-29 22:10 | 44.42956 | 2.03094 | 37045 ft | 417 kts | 236° |
| 2026-04-29 22:11 | 44.39749 | 1.96326 | 37034 ft | 417 kts | 236° |
| 2026-04-29 22:11 | 44.36544 | 1.89586 | 37031 ft | 417 kts | 236° |
| 2026-04-29 22:12 | 44.33327 | 1.82848 | 37029 ft | 416 kts | 236° |
| 2026-04-29 22:12 | 44.30114 | 1.76126 | 37023 ft | 416 kts | 236° |
| 2026-04-29 22:13 | 44.26940 | 1.69377 | 37015 ft | 416 kts | 237° |
| 2026-04-29 22:13 | 44.23837 | 1.62562 | 37019 ft | 416 kts | 237° |
| 2026-04-29 22:14 | 44.20739 | 1.55749 | 37011 ft | 416 kts | 237° |
| 2026-04-29 22:14 | 44.17614 | 1.48971 | 37010 ft | 416 kts | 236° |
| 2026-04-29 22:15 | 44.14477 | 1.42206 | 37004 ft | 416 kts | 237° |
| 2026-04-29 22:15 | 44.11342 | 1.35446 | 37010 ft | 416 kts | 237° |
| 2026-04-29 22:16 | 44.08228 | 1.28743 | 37006 ft | 415 kts | 237° |
| 2026-04-29 22:16 | 44.05074 | 1.21967 | 37006 ft | 414 kts | 237° |
| 2026-04-29 22:17 | 44.01938 | 1.15259 | 37001 ft | 414 kts | 236° |
| 2026-04-29 22:17 | 43.98816 | 1.08596 | 37001 ft | 414 kts | 237° |
| 2026-04-29 22:18 | 43.95661 | 1.01863 | 36998 ft | 413 kts | 237° |
| 2026-04-29 22:18 | 43.92522 | 0.95184 | 36990 ft | 413 kts | 236° |
| 2026-04-29 22:19 | 43.89378 | 0.88520 | 36988 ft | 413 kts | 236° |
| 2026-04-29 22:19 | 43.86314 | 0.81784 | 36992 ft | 413 kts | 239° |
| 2026-04-29 22:20 | 43.83432 | 0.74954 | 36988 ft | 413 kts | 239° |
| 2026-04-29 22:20 | 43.80540 | 0.68084 | 36983 ft | 413 kts | 239° |
| 2026-04-29 22:21 | 43.77603 | 0.61242 | 36978 ft | 413 kts | 239° |
| 2026-04-29 22:21 | 43.74641 | 0.54434 | 36977 ft | 413 kts | 238° |
| 2026-04-29 22:22 | 43.71672 | 0.47619 | 36978 ft | 414 kts | 239° |
| 2026-04-29 22:22 | 43.68709 | 0.40810 | 36979 ft | 413 kts | 239° |
| 2026-04-29 22:23 | 43.65746 | 0.34013 | 36981 ft | 413 kts | 239° |
| 2026-04-29 22:23 | 43.62777 | 0.27208 | 36976 ft | 413 kts | 239° |
| 2026-04-29 22:24 | 43.59811 | 0.20428 | 36978 ft | 413 kts | 239° |
| 2026-04-29 22:24 | 43.56839 | 0.13658 | 36985 ft | 413 kts | 238° |
| 2026-04-29 22:25 | 43.53862 | 0.06893 | 36976 ft | 412 kts | 238° |
| 2026-04-29 22:25 | 43.50881 | 0.00147 | 36980 ft | 412 kts | 238° |
| 2026-04-29 22:26 | 43.47902 | -0.06575 | 36978 ft | 411 kts | 238° |
| 2026-04-29 22:26 | 43.44923 | -0.13287 | 36972 ft | 411 kts | 238° |
| 2026-04-29 22:27 | 43.41949 | -0.19988 | 36970 ft | 410 kts | 238° |
| 2026-04-29 22:27 | 43.38977 | -0.26676 | 36967 ft | 410 kts | 238° |
| 2026-04-29 22:28 | 43.36001 | -0.33341 | 36964 ft | 409 kts | 238° |
| 2026-04-29 22:28 | 43.33015 | -0.40001 | 36965 ft | 409 kts | 238° |
| 2026-04-29 22:29 | 43.30534 | -0.45532 | 36964 ft | 409 kts | 238° |
| 2026-04-29 22:29 | 43.27051 | -0.53284 | 36969 ft | 408 kts | 238° |
| 2026-04-29 22:30 | 43.24076 | -0.59906 | 36969 ft | 407 kts | 238° |
| 2026-04-29 22:30 | 43.21118 | -0.66468 | 36975 ft | 407 kts | 238° |
| 2026-04-29 22:31 | 43.18128 | -0.73058 | 36976 ft | 407 kts | 238° |
| 2026-04-29 22:31 | 43.15137 | -0.79637 | 36990 ft | 406 kts | 238° |
| 2026-04-29 22:32 | 43.12157 | -0.86196 | 36986 ft | 406 kts | 238° |
| 2026-04-29 22:32 | 43.09174 | -0.92755 | 36991 ft | 405 kts | 238° |
| 2026-04-29 22:33 | 43.06190 | -0.99297 | 36992 ft | 405 kts | 238° |
| 2026-04-29 22:33 | 43.03205 | -1.05818 | 36991 ft | 405 kts | 238° |
| 2026-04-29 22:34 | 43.00215 | -1.12332 | 36992 ft | 405 kts | 238° |
| 2026-04-29 22:34 | 42.97216 | -1.18845 | 37005 ft | 405 kts | 238° |
| 2026-04-29 22:35 | 42.94218 | -1.25350 | 37006 ft | 405 kts | 238° |
| 2026-04-29 22:35 | 42.91222 | -1.31841 | 37010 ft | 404 kts | 238° |
| 2026-04-29 22:36 | 42.88226 | -1.38324 | 37015 ft | 403 kts | 238° |
| 2026-04-29 22:36 | 42.85231 | -1.44786 | 37020 ft | 403 kts | 238° |
| 2026-04-29 22:37 | 42.82241 | -1.51219 | 37021 ft | 402 kts | 237° |
| 2026-04-29 22:37 | 42.79245 | -1.57641 | 37024 ft | 401 kts | 237° |
| 2026-04-29 22:38 | 42.76271 | -1.63990 | 37023 ft | 400 kts | 237° |
| 2026-04-29 22:38 | 42.73426 | -1.70488 | 37019 ft | 400 kts | 246° |
| 2026-04-29 22:39 | 42.71705 | -1.77665 | 37019 ft | 400 kts | 252° |
| 2026-04-29 22:39 | 42.70083 | -1.84898 | 37015 ft | 399 kts | 251° |
| 2026-04-29 22:40 | 42.68710 | -1.90936 | 37008 ft | 400 kts | 251° |
| 2026-04-29 22:40 | 42.66806 | -1.99318 | 36998 ft | 399 kts | 251° |
| 2026-04-29 22:41 | 42.65166 | -2.06535 | 36991 ft | 399 kts | 251° |
| 2026-04-29 22:41 | 42.63518 | -2.13732 | 36998 ft | 399 kts | 251° |
| 2026-04-29 22:42 | 42.61841 | -2.20915 | 37001 ft | 399 kts | 250° |
| 2026-04-29 22:42 | 42.60101 | -2.28066 | 36990 ft | 399 kts | 250° |
| 2026-04-29 22:43 | 42.58345 | -2.35219 | 36993 ft | 399 kts | 250° |
| 2026-04-29 22:43 | 42.56892 | -2.41161 | 36994 ft | 399 kts | 250° |
| 2026-04-29 22:44 | 42.55149 | -2.48313 | 36991 ft | 400 kts | 250° |
| 2026-04-29 22:44 | 42.53400 | -2.55465 | 36989 ft | 399 kts | 250° |
| 2026-04-29 22:45 | 42.51645 | -2.62613 | 36984 ft | 400 kts | 250° |
| 2026-04-29 22:45 | 42.49584 | -2.70962 | 36983 ft | 400 kts | 250° |
| 2026-04-29 22:46 | 42.48109 | -2.76882 | 36980 ft | 400 kts | 250° |
| 2026-04-29 22:46 | 42.46331 | -2.84014 | 36979 ft | 399 kts | 250° |
| 2026-04-29 22:47 | 42.44335 | -2.91018 | 36984 ft | 398 kts | 244° |
| 2026-04-29 22:47 | 42.42021 | -2.97825 | 36986 ft | 398 kts | 244° |
| 2026-04-29 22:48 | 42.39704 | -3.04628 | 36986 ft | 398 kts | 244° |
| 2026-04-29 22:48 | 42.37379 | -3.11435 | 36987 ft | 398 kts | 244° |
| 2026-04-29 22:49 | 42.35054 | -3.18228 | 36986 ft | 398 kts | 244° |
| 2026-04-29 22:49 | 42.32725 | -3.25014 | 36976 ft | 398 kts | 244° |
| 2026-04-29 22:50 | 42.30391 | -3.31805 | 36971 ft | 398 kts | 244° |
| 2026-04-29 22:50 | 42.28057 | -3.38574 | 36972 ft | 398 kts | 244° |
| 2026-04-29 22:51 | 42.25718 | -3.45340 | 36968 ft | 398 kts | 244° |
| 2026-04-29 22:51 | 42.22201 | -3.55488 | 36964 ft | 398 kts | 244° |
| 2026-04-29 22:52 | 42.19856 | -3.62244 | 36965 ft | 398 kts | 244° |
| 2026-04-29 22:52 | 42.17512 | -3.68962 | 36961 ft | 398 kts | 244° |
| 2026-04-29 22:53 | 42.15150 | -3.75718 | 36958 ft | 398 kts | 244° |
| 2026-04-29 22:53 | 42.12767 | -3.82513 | 36956 ft | 398 kts | 244° |
| 2026-04-29 22:54 | 42.10417 | -3.89216 | 36953 ft | 399 kts | 244° |
| 2026-04-29 22:54 | 42.08047 | -3.95959 | 36950 ft | 399 kts | 244° |
| 2026-04-29 22:55 | 42.05663 | -4.02712 | 36948 ft | 399 kts | 244° |
| 2026-04-29 22:55 | 42.03276 | -4.09453 | 36953 ft | 400 kts | 244° |
| 2026-04-29 22:56 | 42.00826 | -4.16173 | 36951 ft | 400 kts | 242° |
| 2026-04-29 22:56 | 41.98277 | -4.22820 | 36952 ft | 400 kts | 242° |
| 2026-04-29 22:57 | 41.95714 | -4.29462 | 36950 ft | 401 kts | 242° |
| 2026-04-29 22:57 | 41.93161 | -4.36131 | 36953 ft | 401 kts | 242° |
| 2026-04-29 22:58 | 41.90620 | -4.42797 | 36959 ft | 401 kts | 242° |
| 2026-04-29 22:58 | 41.88068 | -4.49463 | 36965 ft | 401 kts | 242° |
| 2026-04-29 22:59 | 41.85510 | -4.56116 | 36975 ft | 401 kts | 242° |
| 2026-04-29 22:59 | 41.82964 | -4.62729 | 36985 ft | 402 kts | 242° |
| 2026-04-29 23:00 | 41.80388 | -4.69419 | 36995 ft | 401 kts | 242° |
| 2026-04-29 23:00 | 41.77833 | -4.76023 | 37003 ft | 401 kts | 242° |
| 2026-04-29 23:01 | 41.75244 | -4.82693 | 37002 ft | 401 kts | 242° |
| 2026-04-29 23:01 | 41.72685 | -4.89282 | 37005 ft | 401 kts | 242° |
| 2026-04-29 23:02 | 41.70106 | -4.95898 | 36999 ft | 401 kts | 242° |
| 2026-04-29 23:02 | 41.67520 | -5.02514 | 36996 ft | 401 kts | 242° |
| 2026-04-29 23:03 | 41.64941 | -5.09113 | 37001 ft | 401 kts | 242° |
| 2026-04-29 23:03 | 41.62357 | -5.15712 | 36996 ft | 401 kts | 242° |
| 2026-04-29 23:04 | 41.59760 | -5.22314 | 36983 ft | 401 kts | 241° |
| 2026-04-29 23:04 | 41.57165 | -5.28897 | 36980 ft | 401 kts | 241° |
| 2026-04-29 23:05 | 41.54561 | -5.35495 | 36977 ft | 401 kts | 241° |
| 2026-04-29 23:05 | 41.51974 | -5.42048 | 36974 ft | 401 kts | 241° |
| 2026-04-29 23:06 | 41.49370 | -5.48633 | 36976 ft | 402 kts | 241° |
| 2026-04-29 23:06 | 41.46750 | -5.55221 | 36976 ft | 402 kts | 241° |
| 2026-04-29 23:07 | 41.44119 | -5.61809 | 36980 ft | 403 kts | 241° |
| 2026-04-29 23:07 | 41.41485 | -5.68394 | 36978 ft | 403 kts | 241° |
| 2026-04-29 23:08 | 41.38839 | -5.75007 | 36982 ft | 404 kts | 241° |
| 2026-04-29 23:08 | 41.36197 | -5.81596 | 36986 ft | 404 kts | 241° |
| 2026-04-29 23:09 | 41.33548 | -5.88201 | 36986 ft | 405 kts | 241° |
| 2026-04-29 23:09 | 41.30890 | -5.94793 | 36987 ft | 405 kts | 241° |
| 2026-04-29 23:10 | 41.28220 | -6.01398 | 36990 ft | 405 kts | 241° |
| 2026-04-29 23:10 | 41.25554 | -6.07984 | 36986 ft | 405 kts | 241° |
| 2026-04-29 23:11 | 41.22885 | -6.14583 | 36980 ft | 405 kts | 241° |
| 2026-04-29 23:11 | 41.20207 | -6.21177 | 36978 ft | 405 kts | 240° |
| 2026-04-29 23:12 | 41.17523 | -6.27706 | 36978 ft | 406 kts | 237° |
| 2026-04-29 23:12 | 41.14196 | -6.33797 | 36977 ft | 406 kts | 232° |
| 2026-04-29 23:13 | 41.10833 | -6.39753 | 36978 ft | 407 kts | 233° |
| 2026-04-29 23:13 | 41.07450 | -6.45771 | 36983 ft | 407 kts | 233° |
| 2026-04-29 23:14 | 41.04058 | -6.51784 | 36988 ft | 407 kts | 232° |
| 2026-04-29 23:14 | 41.00656 | -6.57790 | 36989 ft | 408 kts | 232° |
| 2026-04-29 23:15 | 40.97246 | -6.63798 | 36992 ft | 408 kts | 232° |
| 2026-04-29 23:15 | 40.93837 | -6.69798 | 37000 ft | 408 kts | 232° |
| 2026-04-29 23:16 | 40.90424 | -6.75791 | 37003 ft | 408 kts | 232° |
| 2026-04-29 23:16 | 40.87003 | -6.81790 | 37003 ft | 408 kts | 232° |
| 2026-04-29 23:17 | 40.83587 | -6.87774 | 37006 ft | 408 kts | 232° |
| 2026-04-29 23:17 | 40.80165 | -6.93745 | 37004 ft | 408 kts | 232° |
| 2026-04-29 23:18 | 40.76733 | -6.99722 | 37005 ft | 408 kts | 232° |
| 2026-04-29 23:18 | 40.73305 | -7.05687 | 37007 ft | 408 kts | 232° |
| 2026-04-29 23:19 | 40.69871 | -7.11650 | 37007 ft | 408 kts | 232° |
| 2026-04-29 23:19 | 40.66457 | -7.17558 | 37009 ft | 408 kts | 232° |
| 2026-04-29 23:20 | 40.63000 | -7.23529 | 37008 ft | 408 kts | 232° |
| 2026-04-29 23:20 | 40.59560 | -7.29467 | 37010 ft | 408 kts | 232° |
| 2026-04-29 23:21 | 40.56139 | -7.35374 | 37006 ft | 408 kts | 232° |
| 2026-04-29 23:21 | 40.52697 | -7.41297 | 37004 ft | 408 kts | 232° |
| 2026-04-29 23:22 | 40.49248 | -7.47213 | 37004 ft | 408 kts | 232° |
| 2026-04-29 23:22 | 40.45797 | -7.53123 | 36993 ft | 407 kts | 232° |
| 2026-04-29 23:23 | 40.44076 | -7.56066 | 36505 ft | 407 kts | 232° |
| 2026-04-29 23:23 | 40.42349 | -7.59014 | 35831 ft | 408 kts | 232° |
| 2026-04-29 23:23 | 40.40623 | -7.61954 | 35369 ft | 403 kts | 235° |
| 2026-04-29 23:23 | 40.38928 | -7.64843 | 35121 ft | 397 kts | 236° |
| 2026-04-29 23:24 | 40.37248 | -7.67710 | 34884 ft | 394 kts | 236° |
| 2026-04-29 23:24 | 40.35585 | -7.70546 | 34652 ft | 392 kts | 236° |
| 2026-04-29 23:24 | 40.33931 | -7.73363 | 34269 ft | 387 kts | 236° |
| 2026-04-29 23:24 | 40.32292 | -7.76147 | 33772 ft | 385 kts | 236° |
| 2026-04-29 23:25 | 40.30660 | -7.78912 | 33283 ft | 381 kts | 236° |
| 2026-04-29 23:25 | 40.29047 | -7.81642 | 32844 ft | 377 kts | 236° |
| 2026-04-29 23:25 | 40.27451 | -7.84345 | 32398 ft | 373 kts | 236° |
| 2026-04-29 23:25 | 40.25871 | -7.87021 | 31951 ft | 370 kts | 236° |
| 2026-04-29 23:26 | 40.24301 | -7.89678 | 31516 ft | 367 kts | 235° |
| 2026-04-29 23:26 | 40.22752 | -7.92301 | 31085 ft | 364 kts | 235° |
| 2026-04-29 23:26 | 40.21206 | -7.94915 | 30661 ft | 361 kts | 235° |
| 2026-04-29 23:26 | 40.19675 | -7.97494 | 30248 ft | 358 kts | 235° |
| 2026-04-29 23:27 | 40.18154 | -8.00057 | 29786 ft | 355 kts | 235° |
| 2026-04-29 23:27 | 40.16651 | -8.02589 | 29389 ft | 350 kts | 235° |
| 2026-04-29 23:27 | 40.15167 | -8.05082 | 29008 ft | 346 kts | 235° |
| 2026-04-29 23:27 | 40.13699 | -8.07550 | 28613 ft | 341 kts | 235° |
| 2026-04-29 23:28 | 40.12254 | -8.09978 | 28259 ft | 336 kts | 235° |
| 2026-04-29 23:28 | 40.10828 | -8.12374 | 27891 ft | 332 kts | 235° |
| 2026-04-29 23:28 | 40.09421 | -8.14739 | 27509 ft | 329 kts | 235° |
| 2026-04-29 23:28 | 40.08017 | -8.17098 | 27149 ft | 328 kts | 235° |
| 2026-04-29 23:29 | 40.06618 | -8.19443 | 26775 ft | 326 kts | 234° |
| 2026-04-29 23:29 | 40.05229 | -8.21770 | 26399 ft | 324 kts | 234° |
| 2026-04-29 23:29 | 40.03846 | -8.24080 | 26024 ft | 323 kts | 234° |
| 2026-04-29 23:29 | 40.02457 | -8.26379 | 25629 ft | 322 kts | 232° |
| 2026-04-29 23:30 | 40.00810 | -8.28387 | 25237 ft | 325 kts | 218° |
| 2026-04-29 23:30 | 39.98849 | -8.29843 | 24884 ft | 327 kts | 206° |
| 2026-04-29 23:30 | 39.96614 | -8.30726 | 24714 ft | 349 kts | 193° |
| 2026-04-29 23:30 | 39.94168 | -8.31132 | 24488 ft | 357 kts | 190° |
| 2026-04-29 23:31 | 39.91690 | -8.31505 | 24265 ft | 358 kts | 190° |
| 2026-04-29 23:31 | 39.89221 | -8.31882 | 24030 ft | 358 kts | 190° |
| 2026-04-29 23:31 | 39.86777 | -8.32258 | 23813 ft | 357 kts | 190° |
| 2026-04-29 23:31 | 39.84277 | -8.32645 | 23589 ft | 356 kts | 190° |
| 2026-04-29 23:32 | 39.81856 | -8.33018 | 23335 ft | 355 kts | 190° |
| 2026-04-29 23:32 | 39.79410 | -8.33394 | 23112 ft | 354 kts | 190° |
| 2026-04-29 23:32 | 39.76962 | -8.33767 | 22889 ft | 353 kts | 190° |
| 2026-04-29 23:32 | 39.74534 | -8.34135 | 22672 ft | 351 kts | 189° |
| 2026-04-29 23:33 | 39.72109 | -8.34562 | 22440 ft | 348 kts | 195° |
| 2026-04-29 23:33 | 39.69843 | -8.35544 | 22224 ft | 343 kts | 208° |
| 2026-04-29 23:33 | 39.67834 | -8.37147 | 22019 ft | 337 kts | 221° |
| 2026-04-29 23:33 | 39.66706 | -8.38474 | 21865 ft | 334 kts | 229° |
| 2026-04-29 23:34 | 39.65251 | -8.40807 | 21662 ft | 332 kts | 234° |
| 2026-04-29 23:34 | 39.63852 | -8.43186 | 21439 ft | 331 kts | 234° |
| 2026-04-29 23:34 | 39.62457 | -8.45546 | 21219 ft | 330 kts | 234° |
| 2026-04-29 23:34 | 39.61092 | -8.47849 | 20968 ft | 329 kts | 234° |
| 2026-04-29 23:35 | 39.59697 | -8.50203 | 20715 ft | 328 kts | 233° |
| 2026-04-29 23:35 | 39.58171 | -8.52337 | 20466 ft | 329 kts | 223° |
| 2026-04-29 23:35 | 39.56330 | -8.54091 | 20220 ft | 330 kts | 213° |
| 2026-04-29 23:35 | 39.54359 | -8.55627 | 19977 ft | 329 kts | 213° |
| 2026-04-29 23:36 | 39.52500 | -8.57080 | 19740 ft | 328 kts | 213° |
| 2026-04-29 23:36 | 39.50545 | -8.58612 | 19509 ft | 327 kts | 213° |
| 2026-04-29 23:36 | 39.48598 | -8.60141 | 19266 ft | 326 kts | 213° |
| 2026-04-29 23:36 | 39.46665 | -8.61661 | 19033 ft | 325 kts | 213° |
| 2026-04-29 23:37 | 39.44735 | -8.63178 | 18789 ft | 324 kts | 213° |
| 2026-04-29 23:37 | 39.42809 | -8.64692 | 18568 ft | 323 kts | 213° |
| 2026-04-29 23:37 | 39.40888 | -8.66199 | 18323 ft | 322 kts | 213° |
| 2026-04-29 23:37 | 39.38972 | -8.67700 | 18056 ft | 321 kts | 213° |
| 2026-04-29 23:38 | 39.37067 | -8.69191 | 17797 ft | 320 kts | 213° |
| 2026-04-29 23:38 | 39.35175 | -8.70699 | 17528 ft | 318 kts | 218° |
| 2026-04-29 23:38 | 39.33552 | -8.72597 | 17266 ft | 313 kts | 232° |
| 2026-04-29 23:38 | 39.32364 | -8.74928 | 16993 ft | 310 kts | 245° |
| 2026-04-29 23:39 | 39.31665 | -8.77543 | 16756 ft | 308 kts | 259° |
| 2026-04-29 23:39 | 39.31473 | -8.80282 | 16502 ft | 307 kts | 270° |
| 2026-04-29 23:39 | 39.31501 | -8.83037 | 16247 ft | 306 kts | 270° |
| 2026-04-29 23:39 | 39.31517 | -8.85745 | 15999 ft | 305 kts | 270° |
| 2026-04-29 23:40 | 39.31525 | -8.88478 | 15749 ft | 303 kts | 270° |
| 2026-04-29 23:40 | 39.31531 | -8.91189 | 15502 ft | 302 kts | 270° |
| 2026-04-29 23:40 | 39.31535 | -8.93898 | 15259 ft | 301 kts | 270° |
| 2026-04-29 23:40 | 39.31540 | -8.96600 | 15019 ft | 300 kts | 270° |
| 2026-04-29 23:41 | 39.31545 | -8.99277 | 14780 ft | 299 kts | 270° |
| 2026-04-29 23:41 | 39.31550 | -9.01959 | 14538 ft | 297 kts | 270° |
| 2026-04-29 23:41 | 39.31556 | -9.04619 | 14306 ft | 296 kts | 270° |
| 2026-04-29 23:41 | 39.31562 | -9.07278 | 14063 ft | 295 kts | 270° |
| 2026-04-29 23:42 | 39.31569 | -9.09918 | 13825 ft | 294 kts | 270° |
| 2026-04-29 23:42 | 39.31577 | -9.12551 | 13566 ft | 293 kts | 270° |
| 2026-04-29 23:42 | 39.31586 | -9.15178 | 13303 ft | 292 kts | 270° |
| 2026-04-29 23:42 | 39.31593 | -9.17792 | 13043 ft | 291 kts | 270° |
| 2026-04-29 23:43 | 39.31598 | -9.20409 | 12779 ft | 290 kts | 270° |
| 2026-04-29 23:43 | 39.31601 | -9.23004 | 12523 ft | 289 kts | 270° |
| 2026-04-29 23:43 | 39.31602 | -9.25592 | 12266 ft | 289 kts | 270° |
| 2026-04-29 23:43 | 39.31602 | -9.28183 | 12017 ft | 288 kts | 270° |
| 2026-04-29 23:44 | 39.31602 | -9.30765 | 11753 ft | 287 kts | 270° |
| 2026-04-29 23:44 | 39.31589 | -9.33349 | 11513 ft | 287 kts | 266° |
| 2026-04-29 23:44 | 39.31046 | -9.35777 | 11255 ft | 282 kts | 240° |
| 2026-04-29 23:44 | 39.29721 | -9.37586 | 11015 ft | 280 kts | 213° |
| 2026-04-29 23:45 | 39.27930 | -9.38407 | 10777 ft | 279 kts | 186° |
| 2026-04-29 23:45 | 39.26028 | -9.38084 | 10536 ft | 278 kts | 159° |
| 2026-04-29 23:45 | 39.24409 | -9.36754 | 10293 ft | 276 kts | 143° |
| 2026-04-29 23:45 | 39.22909 | -9.35216 | 10063 ft | 275 kts | 142° |
| 2026-04-29 23:46 | 39.21414 | -9.33682 | 9891 ft | 274 kts | 143° |
| 2026-04-29 23:46 | 39.19921 | -9.32155 | 9676 ft | 275 kts | 143° |
| 2026-04-29 23:46 | 39.18417 | -9.30624 | 9279 ft | 276 kts | 143° |
| 2026-04-29 23:46 | 39.16927 | -9.29107 | 9099 ft | 269 kts | 142° |
| 2026-04-29 23:47 | 39.15755 | -9.27274 | 8856 ft | 265 kts | 114° |
| 2026-04-29 23:47 | 39.15443 | -9.24982 | 8537 ft | 263 kts | 83° |
| 2026-04-29 23:47 | 39.16053 | -9.22803 | 8192 ft | 260 kts | 56° |
| 2026-04-29 23:47 | 39.17047 | -9.20885 | 8013 ft | 254 kts | 55° |
| 2026-04-29 23:48 | 39.18039 | -9.18981 | 8031 ft | 256 kts | 55° |
| 2026-04-29 23:48 | 39.19027 | -9.17075 | 8033 ft | 256 kts | 57° |
| 2026-04-29 23:48 | 39.19762 | -9.14987 | 8021 ft | 255 kts | 74° |
| 2026-04-29 23:48 | 39.20115 | -9.12814 | 8018 ft | 241 kts | 79° |
| 2026-04-29 23:49 | 39.20428 | -9.10744 | 8017 ft | 228 kts | 78° |
| 2026-04-29 23:49 | 39.20689 | -9.08758 | 8015 ft | 224 kts | 89° |
| 2026-04-29 23:49 | 39.20447 | -9.06802 | 8022 ft | 222 kts | 113° |
| 2026-04-29 23:49 | 39.19636 | -9.05143 | 8014 ft | 219 kts | 136° |
| 2026-04-29 23:50 | 39.18389 | -9.03998 | 7691 ft | 223 kts | 160° |
| 2026-04-29 23:50 | 39.16876 | -9.03594 | 7328 ft | 224 kts | 181° |
| 2026-04-29 23:50 | 39.13720 | -9.03633 | 6656 ft | 230 kts | 182° |
| 2026-04-29 23:51 | 39.12096 | -9.03642 | 6302 ft | 233 kts | 182° |
| 2026-04-29 23:51 | 39.10464 | -9.03648 | 5941 ft | 236 kts | 182° |
| 2026-04-29 23:51 | 39.08826 | -9.03653 | 5589 ft | 237 kts | 182° |
| 2026-04-29 23:51 | 39.07175 | -9.03656 | 5249 ft | 238 kts | 182° |
| 2026-04-29 23:52 | 39.05519 | -9.03659 | 4899 ft | 238 kts | 182° |
| 2026-04-29 23:52 | 39.03870 | -9.03659 | 4557 ft | 237 kts | 182° |
| 2026-04-29 23:52 | 39.02224 | -9.03662 | 4235 ft | 236 kts | 182° |
| 2026-04-29 23:52 | 39.00600 | -9.03664 | 4065 ft | 229 kts | 182° |
| 2026-04-29 23:53 | 38.99056 | -9.03665 | 4053 ft | 214 kts | 183° |
| 2026-04-29 23:53 | 38.97638 | -9.03664 | 4071 ft | 193 kts | 183° |
| 2026-04-29 23:53 | 38.96405 | -9.03829 | 4053 ft | 170 kts | 199° |
| 2026-04-29 23:53 | 38.95304 | -9.04384 | 4071 ft | 173 kts | 205° |
| 2026-04-29 23:54 | 38.94186 | -9.04989 | 4061 ft | 175 kts | 205° |
| 2026-04-29 23:54 | 38.93054 | -9.05592 | 4034 ft | 174 kts | 205° |
| 2026-04-29 23:54 | 38.91955 | -9.06179 | 3732 ft | 170 kts | 205° |
| 2026-04-29 23:54 | 38.90797 | -9.06802 | 2983 ft | 186 kts | 205° |
| 2026-04-29 23:55 | 38.89642 | -9.07421 | 2627 ft | 177 kts | 205° |
| 2026-04-29 23:55 | 38.88566 | -9.07997 | 2399 ft | 158 kts | 205° |
| 2026-04-29 23:55 | 38.87607 | -9.08512 | 2179 ft | 143 kts | 205° |
| 2026-04-29 23:55 | 38.86707 | -9.08995 | 1992 ft | 138 kts | 205° |
| 2026-04-29 23:56 | 38.85831 | -9.09466 | 1810 ft | 136 kts | 205° |
| 2026-04-29 23:56 | 38.84961 | -9.09933 | 1621 ft | 135 kts | 205° |
| 2026-04-29 23:56 | 38.84098 | -9.10396 | 1442 ft | 135 kts | 205° |
| 2026-04-29 23:56 | 38.83229 | -9.10862 | 1259 ft | 135 kts | 204° |
| 2026-04-29 23:57 | 38.82356 | -9.11330 | 1063 ft | 136 kts | 203° |
| 2026-04-29 23:57 | 38.81486 | -9.11795 | 868 ft | 135 kts | 203° |
| 2026-04-29 23:57 | 38.80617 | -9.12263 | 684 ft | 136 kts | 204° |
| 2026-04-29 23:57 | 38.79752 | -9.12737 | 514 ft | 135 kts | 204° |
| 2026-04-29 23:58 | 38.78884 | -9.13190 | 370 ft | 131 kts | 203° |
| 2026-04-29 23:58 | 38.78160 | -9.13579 | 368 ft | 90 kts | 203° |
| 2026-04-29 23:58 | 38.77781 | -9.13783 | 366 ft | 40 kts | 200° |
| 2026-04-29 23:58 | 38.77599 | -9.13875 | 366 ft | 22 kts | 197° |
| 2026-04-29 23:59 | 38.77438 | -9.13900 | 360 ft | 20 kts | 179° |
| 2026-04-29 23:59 | 38.77324 | -9.13894 | 360 ft | 18 kts | 179° |
| 2026-04-29 23:59 | 38.77207 | -9.13890 | 364 ft | 16 kts | 177° |
| 2026-04-29 23:59 | 38.77087 | -9.13895 | 358 ft | 18 kts | 184° |
| 2026-04-30 00:00 | 38.76970 | -9.13865 | 349 ft | 15 kts | 167° |
| 2026-04-30 00:00 | 38.76866 | -9.13837 | 350 ft | 11 kts | 169° |
| 2026-04-30 00:00 | 38.76786 | -9.13816 | 353 ft | 13 kts | 168° |
| 2026-04-30 00:00 | 38.76695 | -9.13791 | 344 ft | 14 kts | 168° |
| 2026-04-30 00:01 | 38.76622 | -9.13728 | 351 ft | 13 kts | 104° |
| 2026-04-30 00:01 | 38.76573 | -9.13670 | 349 ft | 8 kts | 188° |
| 2026-04-30 00:01 | 38.76541 | -9.13735 | 354 ft | 10 kts | 255° |
| 2026-04-30 00:01 | 38.76510 | -9.13794 | 348 ft | 8 kts | 185° |
| 2026-04-30 00:02 | 38.76465 | -9.13784 | 348 ft | 3 kts | 167° |
| 2026-04-30 00:02 | 38.76455 | -9.13781 | 355 ft | 0 kts | 168° |
| 2026-04-30 00:02 | 38.76453 | -9.13781 | 354 ft | 0 kts | 168° |